createdAt,value
2023-01-31T00:01:36.369Z,3.50
2023-01-31T00:04:24.567Z,3.50
2023-01-31T00:07:09.897Z,3.40
2023-01-31T00:09:57.760Z,3.40
2023-01-31T00:12:43.333Z,3.30
2023-01-31T00:15:31.877Z,3.40
2023-01-31T00:18:19.590Z,3.50
2023-01-31T00:21:13.215Z,3.50
2023-01-31T00:24:01.831Z,3.50
2023-01-31T00:26:56.742Z,3.40
2023-01-31T00:29:42.444Z,3.40
2023-01-31T00:32:27.755Z,3.40
2023-01-31T00:35:13.362Z,3.40
2023-01-31T00:38:00.236Z,3.40
2023-01-31T00:40:55.348Z,3.40
2023-01-31T00:43:40.979Z,3.40
2023-01-31T00:46:29.719Z,3.50
2023-01-31T00:49:15.620Z,3.40
2023-01-31T00:52:01.116Z,3.40
2023-01-31T00:54:46.759Z,3.50
2023-01-31T00:57:34.859Z,3.70
2023-01-31T01:00:21.127Z,3.70
2023-01-31T01:03:06.868Z,3.90
2023-01-31T01:05:52.374Z,3.90
2023-01-31T01:08:39.369Z,4.00
2023-01-31T01:11:28.589Z,4.00
2023-01-31T01:14:14.499Z,4.10
2023-01-31T01:17:06.899Z,4.10
2023-01-31T01:19:52.240Z,4.10
2023-01-31T01:22:38.487Z,4.10
2023-01-31T01:25:23.865Z,4.20
2023-01-31T01:28:09.504Z,4.10
2023-01-31T01:30:59.445Z,4.20
2023-01-31T01:33:46.824Z,4.20
2023-01-31T01:36:34.823Z,4.10
2023-01-31T01:39:20.315Z,4.10
2023-01-31T01:42:06.485Z,4.10
2023-01-31T01:44:58.186Z,4.10
2023-01-31T01:47:54.720Z,4.10
2023-01-31T01:50:49.108Z,4.10
2023-01-31T01:53:39.688Z,4.10
2023-01-31T01:56:37.510Z,4.10
2023-01-31T01:59:28.779Z,4.10
2023-01-31T02:02:14.992Z,4.00
2023-01-31T02:05:00.625Z,4.10
2023-01-31T02:07:48.949Z,4.10
2023-01-31T02:11:10.841Z,4.00
2023-01-31T02:14:07.195Z,4.00
2023-01-31T02:16:53.168Z,4.10
2023-01-31T02:20:17.118Z,4.20
2023-01-31T02:23:27.141Z,4.20
2023-01-31T02:26:28.144Z,4.20
2023-01-31T02:29:47.700Z,4.20
2023-01-31T02:32:45.008Z,4.20
2023-01-31T02:35:48.749Z,4.30
2023-01-31T02:39:14.026Z,4.30
2023-01-31T02:42:54.967Z,4.30
2023-01-31T02:45:57.696Z,4.30
2023-01-31T02:49:11.974Z,4.20
2023-01-31T02:52:16.322Z,4.20
2023-01-31T02:55:23.653Z,4.00
2023-01-31T02:58:14.433Z,3.90
2023-01-31T03:01:04.598Z,3.60
2023-01-31T03:03:51.540Z,3.50
2023-01-31T03:06:36.900Z,3.30
2023-01-31T03:09:37.433Z,3.20
2023-01-31T03:12:36.420Z,3.20
2023-01-31T03:16:05.262Z,3.00
2023-01-31T03:19:02.720Z,2.90
2023-01-31T03:21:53.274Z,2.90
2023-01-31T03:24:41.482Z,3.00
2023-01-31T03:27:27.949Z,3.00
2023-01-31T03:30:18.653Z,2.80
2023-01-31T03:33:33.448Z,2.80
2023-01-31T03:36:51.662Z,2.90
2023-01-31T03:39:42.875Z,2.80
2023-01-31T03:42:43.133Z,2.90
2023-01-31T03:45:41.469Z,2.80
2023-01-31T03:48:31.522Z,2.90
2023-01-31T03:51:24.781Z,2.90
2023-01-31T03:54:16.029Z,2.90
2023-01-31T03:57:10.582Z,2.80
2023-01-31T04:00:04.593Z,2.80
2023-01-31T04:03:02.986Z,2.80
2023-01-31T04:05:53.814Z,2.80
2023-01-31T04:08:39.401Z,2.80
2023-01-31T04:11:31.027Z,2.80
2023-01-31T04:14:16.837Z,2.80
2023-01-31T04:17:02.337Z,2.70
2023-01-31T04:19:49.903Z,2.80
2023-01-31T04:22:35.397Z,2.70
2023-01-31T04:25:23.894Z,2.60
2023-01-31T04:28:09.756Z,2.70
2023-01-31T04:31:00.147Z,2.60
2023-01-31T04:33:45.967Z,2.60
2023-01-31T04:36:32.094Z,2.70
2023-01-31T04:39:17.881Z,2.70
2023-01-31T04:42:03.197Z,2.60
2023-01-31T04:44:49.196Z,2.80
2023-01-31T04:47:37.483Z,2.70
2023-01-31T04:50:23.303Z,2.60
2023-01-31T04:53:10.833Z,2.70
2023-01-31T04:55:56.479Z,2.80
2023-01-31T04:58:43.482Z,2.80
2023-01-31T05:01:29.455Z,2.80
2023-01-31T05:04:15.125Z,2.80
2023-01-31T05:07:00.475Z,2.90
2023-01-31T05:09:46.291Z,2.90
2023-01-31T05:12:31.663Z,2.80
2023-01-31T05:15:17.642Z,2.80
2023-01-31T05:18:04.692Z,2.90
2023-01-31T05:20:50.572Z,2.80
2023-01-31T05:23:36.701Z,2.90
2023-01-31T05:26:24.178Z,2.90
2023-01-31T05:29:11.007Z,2.80
2023-01-31T05:31:59.133Z,2.90
2023-01-31T05:34:44.302Z,2.90
2023-01-31T05:37:30.016Z,2.90
2023-01-31T05:40:21.190Z,3.20
2023-01-31T05:43:06.684Z,3.30
2023-01-31T05:45:52.516Z,3.40
2023-01-31T05:48:37.942Z,3.40
2023-01-31T05:51:23.857Z,3.50
2023-01-31T05:54:13.160Z,3.60
2023-01-31T05:56:58.345Z,3.70
2023-01-31T05:59:43.572Z,3.70
2023-01-31T06:02:29.780Z,3.80
2023-01-31T06:05:16.396Z,3.80
2023-01-31T06:08:02.518Z,3.80
2023-01-31T06:10:47.859Z,3.90
2023-01-31T06:13:35.459Z,3.90
2023-01-31T06:16:22.763Z,3.90
2023-01-31T06:19:10.183Z,3.90
2023-01-31T06:21:55.593Z,4.00
2023-01-31T06:24:41.343Z,4.00
2023-01-31T06:27:29.396Z,4.00
2023-01-31T06:30:15.038Z,4.10
2023-01-31T06:33:00.758Z,4.10
2023-01-31T06:35:48.409Z,4.10
2023-01-31T06:38:35.957Z,4.10
2023-01-31T06:41:25.952Z,4.10
2023-01-31T06:44:11.513Z,4.10
2023-01-31T06:46:57.313Z,4.10
2023-01-31T06:49:43.595Z,4.20
2023-01-31T06:52:29.249Z,4.20
2023-01-31T06:55:15.317Z,4.20
2023-01-31T06:58:00.604Z,4.20
2023-01-31T07:00:46.143Z,4.30
2023-01-31T07:03:31.527Z,4.30
2023-01-31T07:06:19.921Z,4.30
2023-01-31T07:09:08.946Z,4.30
2023-01-31T07:11:54.774Z,4.40
2023-01-31T07:14:40.288Z,4.40
2023-01-31T07:17:28.840Z,4.40
2023-01-31T07:20:14.958Z,4.40
2023-01-31T07:23:03.505Z,4.40
2023-01-31T07:25:49.413Z,4.50
2023-01-31T07:28:34.817Z,4.40
2023-01-31T07:31:22.236Z,4.40
2023-01-31T07:34:10.277Z,4.40
2023-01-31T07:36:56.297Z,4.40
2023-01-31T07:39:42.340Z,4.50
2023-01-31T07:42:30.077Z,4.50
2023-01-31T07:45:33.191Z,4.60
2023-01-31T07:48:23.422Z,4.60
2023-01-31T07:51:09.350Z,4.60
2023-01-31T07:53:54.854Z,4.60
2023-01-31T07:56:42.699Z,4.60
2023-01-31T07:59:28.342Z,4.60
2023-01-31T08:02:35.133Z,4.70
2023-01-31T08:05:23.446Z,4.70
2023-01-31T08:08:12.955Z,4.70
2023-01-31T08:11:00.780Z,4.80
2023-01-31T08:13:46.091Z,4.80
2023-01-31T08:16:33.400Z,4.90
2023-01-31T08:19:20.862Z,4.90
2023-01-31T08:22:06.770Z,4.90
2023-01-31T08:24:52.072Z,5.10
2023-01-31T08:27:39.676Z,5.10
2023-01-31T08:30:27.740Z,5.00
2023-01-31T08:33:16.224Z,5.10
2023-01-31T08:36:28.327Z,5.00
2023-01-31T08:39:13.865Z,5.10
2023-01-31T08:41:59.627Z,5.10
2023-01-31T08:44:44.962Z,5.00
2023-01-31T08:47:32.661Z,5.00
2023-01-31T08:50:27.140Z,5.00
2023-01-31T08:53:13.758Z,5.00
2023-01-31T08:56:04.591Z,5.00
2023-01-31T08:58:54.517Z,5.10
2023-01-31T09:01:41.637Z,5.10
2023-01-31T09:04:27.069Z,5.20
2023-01-31T09:07:12.547Z,5.30
2023-01-31T09:09:58.287Z,5.30
2023-01-31T09:12:43.768Z,5.40
2023-01-31T09:15:31.338Z,5.30
2023-01-31T09:18:19.396Z,5.30
2023-01-31T09:21:06.859Z,5.20
2023-01-31T09:24:02.569Z,5.20
2023-01-31T09:26:48.281Z,5.30
2023-01-31T09:29:33.796Z,5.30
2023-01-31T09:32:20.639Z,5.30
2023-01-31T09:35:06.955Z,5.40
2023-01-31T09:37:53.158Z,5.60
2023-01-31T09:40:40.923Z,5.70
2023-01-31T09:43:32.261Z,5.70
2023-01-31T09:46:21.299Z,5.80
2023-01-31T09:49:14.799Z,5.80
2023-01-31T09:52:02.666Z,5.90
2023-01-31T09:54:50.247Z,6.10
2023-01-31T09:58:13.903Z,6.30
2023-01-31T10:01:25.465Z,6.40
2023-01-31T10:04:43.422Z,6.60
2023-01-31T10:07:40.673Z,6.30
2023-01-31T10:10:50.927Z,6.30
2023-01-31T10:13:49.908Z,6.30
2023-01-31T10:16:45.807Z,6.30
2023-01-31T10:19:42.244Z,6.50
2023-01-31T10:22:49.743Z,6.50
2023-01-31T10:25:44.162Z,6.40
2023-01-31T10:29:10.619Z,6.50
2023-01-31T10:32:06.504Z,6.40
2023-01-31T10:34:57.001Z,6.50
2023-01-31T10:37:59.769Z,6.40
2023-01-31T10:40:53.194Z,6.30
2023-01-31T10:44:03.953Z,6.40
2023-01-31T10:46:49.464Z,6.30
2023-01-31T10:49:35.518Z,6.30
2023-01-31T10:52:42.611Z,6.30
2023-01-31T10:55:40.025Z,6.40
2023-01-31T10:58:25.620Z,6.50
2023-01-31T11:01:12.353Z,6.50
2023-01-31T11:03:58.376Z,6.60
2023-01-31T11:06:43.893Z,6.70
2023-01-31T11:09:38.011Z,6.80
2023-01-31T11:12:53.040Z,6.80
2023-01-31T11:15:41.025Z,6.70
2023-01-31T11:18:42.871Z,6.80
2023-01-31T11:21:34.335Z,6.70
2023-01-31T11:24:31.264Z,6.40
2023-01-31T11:27:38.864Z,6.30
2023-01-31T11:30:40.839Z,6.20
2023-01-31T11:33:55.937Z,6.40
2023-01-31T11:36:46.451Z,6.30
2023-01-31T11:39:35.230Z,6.50
2023-01-31T11:42:25.268Z,6.40
2023-01-31T11:45:20.214Z,6.30
2023-01-31T11:48:39.744Z,6.50
2023-01-31T11:51:33.445Z,6.40
2023-01-31T11:54:25.890Z,6.30
2023-01-31T11:57:26.704Z,6.40
2023-01-31T12:00:28.472Z,6.20
2023-01-31T12:03:18.032Z,6.30
2023-01-31T12:06:09.427Z,6.40
2023-01-31T12:08:56.731Z,6.40
2023-01-31T12:11:54.277Z,6.40
2023-01-31T12:14:42.296Z,6.30
2023-01-31T12:17:31.829Z,6.20
2023-01-31T12:20:45.343Z,6.30
2023-01-31T12:23:42.835Z,6.10
2023-01-31T12:26:55.461Z,6.00
2023-01-31T12:29:53.219Z,6.00
2023-01-31T12:33:02.209Z,5.90
2023-01-31T12:36:10.967Z,5.80
2023-01-31T12:38:58.980Z,5.70
2023-01-31T12:41:54.663Z,5.70
2023-01-31T12:44:57.481Z,5.70
2023-01-31T12:48:11.109Z,5.60
2023-01-31T12:51:02.245Z,5.60
2023-01-31T12:53:59.404Z,5.50
2023-01-31T12:56:47.562Z,5.40
2023-01-31T13:00:14.571Z,5.30
2023-01-31T13:03:33.763Z,5.20
2023-01-31T13:06:42.285Z,5.10
2023-01-31T13:09:35.824Z,5.10
2023-01-31T13:12:25.900Z,5.00
2023-01-31T13:15:23.755Z,5.00
2023-01-31T13:18:12.264Z,5.00
2023-01-31T13:21:01.730Z,5.00
2023-01-31T13:23:52.020Z,5.10
2023-01-31T13:26:52.413Z,5.20
2023-01-31T13:29:47.148Z,5.10
2023-01-31T13:32:47.130Z,5.10
2023-01-31T13:35:43.602Z,5.20
2023-01-31T13:38:37.550Z,5.10
2023-01-31T13:41:37.094Z,5.10
2023-01-31T13:44:24.489Z,5.10
2023-01-31T13:47:27.094Z,5.20
2023-01-31T13:50:57.509Z,5.20
2023-01-31T13:53:50.457Z,5.10
2023-01-31T13:56:39.043Z,5.20
2023-01-31T13:59:37.833Z,5.10
2023-01-31T14:02:23.533Z,5.10
2023-01-31T14:05:43.148Z,5.20
2023-01-31T14:08:36.035Z,5.20
2023-01-31T14:11:23.000Z,5.10
2023-01-31T14:14:37.423Z,5.10
2023-01-31T14:17:33.827Z,5.10
2023-01-31T14:20:29.457Z,5.10
2023-01-31T14:23:47.137Z,5.00
2023-01-31T14:26:51.309Z,5.00
2023-01-31T14:29:47.731Z,5.00
2023-01-31T14:33:07.217Z,5.00
2023-01-31T14:36:35.624Z,5.00
2023-01-31T14:39:38.170Z,5.10
2023-01-31T14:42:35.758Z,5.00
2023-01-31T14:46:06.986Z,5.00
2023-01-31T14:48:58.227Z,5.00
2023-01-31T14:52:11.204Z,5.10
2023-01-31T14:55:08.898Z,5.10
2023-01-31T14:57:58.423Z,5.10
2023-01-31T15:00:51.461Z,5.10
2023-01-31T15:03:40.275Z,5.10
2023-01-31T15:06:29.577Z,5.10
2023-01-31T15:09:21.614Z,5.10
2023-01-31T15:12:45.527Z,5.10
2023-01-31T15:15:39.815Z,5.20
2023-01-31T15:18:26.950Z,5.30
2023-01-31T15:21:18.964Z,5.30
2023-01-31T15:24:06.305Z,5.40
2023-01-31T15:26:54.392Z,5.40
2023-01-31T15:30:06.985Z,5.40
2023-01-31T15:33:01.949Z,5.50
2023-01-31T15:35:56.561Z,5.50
2023-01-31T15:38:55.284Z,5.50
2023-01-31T15:41:44.836Z,5.40
2023-01-31T15:44:30.091Z,5.40
2023-01-31T15:47:23.933Z,5.30
2023-01-31T15:50:20.727Z,5.40
2023-01-31T15:53:14.262Z,5.40
2023-01-31T15:56:03.424Z,5.40
2023-01-31T15:58:54.682Z,5.40
2023-01-31T16:01:48.548Z,5.40
2023-01-31T16:04:33.829Z,5.50
2023-01-31T16:07:28.394Z,5.50
2023-01-31T16:10:14.760Z,5.50
2023-01-31T16:13:02.443Z,5.60
2023-01-31T16:15:48.408Z,5.60
2023-01-31T16:18:35.994Z,5.70
2023-01-31T16:21:29.849Z,5.70
2023-01-31T16:24:19.201Z,5.70
2023-01-31T16:27:14.518Z,5.70
2023-01-31T16:30:00.742Z,5.80
2023-01-31T16:32:51.422Z,5.80
2023-01-31T16:35:36.941Z,5.80
2023-01-31T16:38:27.187Z,5.90
2023-01-31T16:41:14.511Z,5.90
2023-01-31T16:44:01.478Z,5.90
2023-01-31T16:46:49.257Z,5.90
2023-01-31T16:49:37.895Z,6.00
2023-01-31T16:52:32.356Z,6.00
2023-01-31T16:55:24.402Z,6.00
2023-01-31T16:58:13.119Z,6.00
2023-01-31T17:01:14.442Z,6.00
2023-01-31T17:04:15.526Z,6.10
2023-01-31T17:07:09.368Z,6.10
2023-01-31T17:10:09.266Z,6.10
2023-01-31T17:13:06.339Z,6.10
2023-01-31T17:15:52.864Z,6.00
2023-01-31T17:18:38.555Z,6.00
2023-01-31T17:21:28.413Z,6.00
2023-01-31T17:24:17.703Z,6.00
2023-01-31T17:27:03.154Z,6.00
2023-01-31T17:29:49.325Z,6.00
2023-01-31T17:32:35.855Z,6.00
2023-01-31T17:35:28.641Z,6.00
2023-01-31T17:38:16.167Z,6.00
2023-01-31T17:41:02.250Z,6.10
2023-01-31T17:43:47.832Z,6.10
2023-01-31T17:46:33.788Z,6.10
2023-01-31T17:49:19.628Z,6.10
2023-01-31T17:52:05.598Z,6.10
2023-01-31T17:54:51.149Z,6.20
2023-01-31T17:57:36.545Z,6.20
2023-01-31T18:00:25.162Z,6.20
2023-01-31T18:03:34.738Z,6.30
2023-01-31T18:06:20.321Z,6.20
2023-01-31T18:09:08.639Z,6.20
2023-01-31T18:11:54.869Z,6.30
2023-01-31T18:14:40.285Z,6.30
2023-01-31T18:17:26.313Z,6.30
2023-01-31T18:20:11.979Z,6.40
2023-01-31T18:22:57.430Z,6.40
2023-01-31T18:25:44.174Z,6.40
2023-01-31T18:28:30.141Z,6.50
2023-01-31T18:31:17.815Z,6.60
2023-01-31T18:34:03.475Z,6.60
2023-01-31T18:36:48.986Z,6.60
2023-01-31T18:39:34.273Z,6.60
2023-01-31T18:42:20.918Z,6.70
2023-01-31T18:45:07.352Z,6.70
2023-01-31T18:47:53.759Z,6.70
2023-01-31T18:50:41.565Z,6.70
2023-01-31T18:53:27.388Z,6.70
2023-01-31T18:56:17.544Z,6.70
2023-01-31T18:59:03.111Z,6.70
2023-01-31T19:01:48.561Z,6.70
2023-01-31T19:04:33.975Z,6.70
2023-01-31T19:07:19.340Z,6.70
2023-01-31T19:10:07.466Z,6.70
2023-01-31T19:12:53.166Z,6.70
2023-01-31T19:15:38.997Z,6.70
2023-01-31T19:18:24.862Z,6.80
2023-01-31T19:21:15.547Z,6.70
2023-01-31T19:24:09.180Z,6.80
2023-01-31T19:26:55.928Z,6.80
2023-01-31T19:29:42.242Z,5.10
2023-01-31T19:32:33.524Z,2.40
2023-01-31T19:35:18.941Z,6.40
2023-01-31T19:38:05.634Z,2.70
2023-01-31T19:40:51.891Z,3.00
2023-01-31T19:43:38.353Z,3.00
2023-01-31T19:46:27.167Z,3.20
2023-01-31T19:49:13.264Z,3.20
2023-01-31T19:51:58.768Z,3.40
2023-01-31T19:54:44.152Z,3.20
2023-01-31T19:57:29.864Z,3.00
2023-01-31T20:00:15.623Z,3.30
2023-01-31T20:03:04.443Z,3.10
2023-01-31T20:05:53.437Z,3.30
2023-01-31T20:08:39.056Z,3.40
2023-01-31T20:11:29.359Z,3.20
2023-01-31T20:14:14.713Z,3.30
2023-01-31T20:17:00.242Z,3.80
2023-01-31T20:19:46.083Z,3.70
2023-01-31T20:22:32.218Z,3.60
2023-01-31T20:25:17.840Z,3.40
2023-01-31T20:28:05.891Z,3.60
2023-01-31T20:30:51.955Z,3.40
2023-01-31T20:33:38.316Z,3.20
2023-01-31T20:36:24.981Z,3.50
2023-01-31T20:39:12.365Z,3.20
2023-01-31T20:41:57.801Z,3.00
2023-01-31T20:44:46.709Z,3.20
2023-01-31T20:47:32.554Z,3.40
2023-01-31T20:50:21.523Z,2.90
2023-01-31T20:53:18.037Z,3.00
2023-01-31T20:56:08.285Z,3.10
2023-01-31T20:58:56.296Z,3.10
2023-01-31T21:01:45.046Z,3.40
2023-01-31T21:04:30.841Z,3.40
2023-01-31T21:07:16.255Z,3.60
2023-01-31T21:10:02.075Z,3.50
2023-01-31T21:12:47.760Z,3.20
2023-01-31T21:15:33.384Z,3.60
2023-01-31T21:18:20.556Z,3.50
2023-01-31T21:21:09.182Z,3.30
2023-01-31T21:23:59.228Z,3.70
2023-01-31T21:26:44.458Z,3.40
2023-01-31T21:29:29.983Z,3.70
2023-01-31T21:32:15.400Z,4.10
2023-01-31T21:35:02.628Z,3.80
2023-01-31T21:37:50.295Z,4.20
2023-01-31T21:40:39.023Z,3.70
2023-01-31T21:43:24.540Z,3.70
2023-01-31T21:46:13.669Z,4.00
2023-01-31T21:49:00.272Z,3.50
2023-01-31T21:51:46.009Z,2.90
2023-01-31T21:54:31.654Z,2.80
2023-01-31T21:57:17.240Z,2.70
2023-01-31T22:00:02.690Z,2.60
2023-01-31T22:02:52.719Z,2.30
2023-01-31T22:05:38.522Z,2.40
2023-01-31T22:08:23.857Z,2.10
2023-01-31T22:11:14.405Z,2.10
2023-01-31T22:14:01.344Z,2.40
2023-01-31T22:16:46.931Z,2.20
2023-01-31T22:19:32.725Z,2.10
2023-01-31T22:22:18.595Z,2.00
2023-01-31T22:25:04.569Z,2.00
2023-01-31T22:27:52.613Z,2.40
2023-01-31T22:30:38.532Z,2.20
2023-01-31T22:33:25.261Z,2.00
2023-01-31T22:36:15.797Z,2.30
2023-01-31T22:39:01.545Z,2.10
2023-01-31T22:41:47.037Z,2.20
2023-01-31T22:44:32.790Z,2.20
2023-01-31T22:47:18.459Z,2.60
2023-01-31T22:50:04.952Z,2.60
2023-01-31T22:52:50.311Z,2.30
2023-01-31T22:55:42.660Z,2.40
2023-01-31T22:58:28.444Z,2.40
2023-01-31T23:01:19.675Z,2.50
2023-01-31T23:04:07.698Z,2.40
2023-01-31T23:06:53.222Z,2.90
2023-01-31T23:09:39.075Z,2.70
2023-01-31T23:12:27.420Z,3.00
2023-01-31T23:15:15.759Z,3.00
2023-01-31T23:18:01.971Z,3.10
2023-01-31T23:20:50.000Z,3.30
2023-01-31T23:23:35.597Z,3.20
2023-01-31T23:26:21.177Z,3.40
2023-01-31T23:29:06.756Z,3.40
2023-01-31T23:31:52.863Z,3.30
2023-01-31T23:34:38.325Z,3.40
2023-01-31T23:37:24.365Z,3.30
2023-01-31T23:40:13.179Z,3.50
2023-01-31T23:43:00.524Z,3.50
2023-01-31T23:45:45.835Z,3.50
2023-01-31T23:48:31.441Z,3.60
2023-01-31T23:51:16.872Z,3.40
2023-01-31T23:54:02.668Z,3.30
2023-01-31T23:56:48.233Z,3.20
2023-01-31T23:59:35.293Z,3.20
